Thorndike, Maine
Current Conditions -  °F | °C
As of 4:35 PM on Friday 24 Oct 2014 (Local Time) from KWVL Reporting Station
Overcast Overcast  
Wind Chill: 41°   Ceiling: 2100
Heat Index: 46°   Visibility: 10mi
Dew Point: 39°   Wind: 13mph
Humidity: 76%   Direction: 340°NNW
Pressure: 29.63"   Gusts: NA
Location:  44.58°N, 69.28°W
Report Text: KWVL 242035Z 34011KT 10SM OVC021 08/04 A2963 RMK AO1
Loading
Personal Weather Stations






























Interactive Weather Map
Tropical Storm Tracking
New forecast layout! Learn more

10-Day Weather Forecast

Advertisements
Track Severe Weather on mobile